sensor_id;sensor_type;location;lat;lon;timestamp;temperature;humidity
4673;DHT22;61885;53.560;9.940;2023-07-28T00:02:29;16.40;99.90
4673;DHT22;61885;53.560;9.940;2023-07-28T00:05:05;16.40;99.90
4673;DHT22;61885;53.560;9.940;2023-07-28T00:07:37;16.50;99.90
4673;DHT22;61885;53.560;9.940;2023-07-28T00:10:07;16.50;99.90
4673;DHT22;61885;53.560;9.940;2023-07-28T00:12:37;16.40;99.90
4673;DHT22;61885;53.560;9.940;2023-07-28T00:15:07;16.40;99.90
4673;DHT22;61885;53.560;9.940;2023-07-28T00:17:38;16.40;99.90
4673;DHT22;61885;53.560;9.940;2023-07-28T00:20:13;16.40;99.90
4673;DHT22;61885;53.560;9.940;2023-07-28T00:22:48;16.40;99.90
4673;DHT22;61885;53.560;9.940;2023-07-28T00:25:20;16.40;99.90
4673;DHT22;61885;53.560;9.940;2023-07-28T00:27:50;16.30;99.90
4673;DHT22;61885;53.560;9.940;2023-07-28T00:30:19;16.30;99.90
4673;DHT22;61885;53.560;9.940;2023-07-28T00:32:50;16.40;99.90
4673;DHT22;61885;53.560;9.940;2023-07-28T00:35:23;16.50;99.90
4673;DHT22;61885;53.560;9.940;2023-07-28T00:37:53;16.60;99.90
4673;DHT22;61885;53.560;9.940;2023-07-28T00:40:23;16.50;99.90
4673;DHT22;61885;53.560;9.940;2023-07-28T00:42:52;16.50;99.90
4673;DHT22;61885;53.560;9.940;2023-07-28T00:45:23;16.40;99.90
4673;DHT22;61885;53.560;9.940;2023-07-28T00:47:55;16.40;99.90
4673;DHT22;61885;53.560;9.940;2023-07-28T00:50:30;16.40;99.90
4673;DHT22;61885;53.560;9.940;2023-07-28T00:53:02;16.30;99.90
4673;DHT22;61885;53.560;9.940;2023-07-28T00:55:32;16.30;99.90
4673;DHT22;61885;53.560;9.940;2023-07-28T00:58:01;16.30;99.90
4673;DHT22;61885;53.560;9.940;2023-07-28T01:00:31;16.40;99.90
4673;DHT22;61885;53.560;9.940;2023-07-28T01:03:01;16.50;99.90
4673;DHT22;61885;53.560;9.940;2023-07-28T01:05:42;16.40;99.90
4673;DHT22;61885;53.560;9.940;2023-07-28T01:08:19;16.40;99.90
4673;DHT22;61885;53.560;9.940;2023-07-28T01:10:49;16.40;99.90
4673;DHT22;61885;53.560;9.940;2023-07-28T01:13:19;16.30;99.90
4673;DHT22;61885;53.560;9.940;2023-07-28T01:15:49;16.20;99.90
4673;DHT22;61885;53.560;9.940;2023-07-28T01:18:19;16.30;99.90
4673;DHT22;61885;53.560;9.940;2023-07-28T01:20:53;16.30;99.90
4673;DHT22;61885;53.560;9.940;2023-07-28T01:23:33;16.30;99.90
4673;DHT22;61885;53.560;9.940;2023-07-28T01:26:08;16.30;99.90
4673;DHT22;61885;53.560;9.940;2023-07-28T01:28:42;16.40;99.90
4673;DHT22;61885;53.560;9.940;2023-07-28T01:31:12;16.30;99.90
4673;DHT22;61885;53.560;9.940;2023-07-28T01:33:43;16.30;99.90
4673;DHT22;61885;53.560;9.940;2023-07-28T01:36:12;16.40;99.90
4673;DHT22;61885;53.560;9.940;2023-07-28T01:38:43;16.30;99.90
4673;DHT22;61885;53.560;9.940;2023-07-28T01:41:15;16.30;99.90
4673;DHT22;61885;53.560;9.940;2023-07-28T01:43:47;16.30;99.90
4673;DHT22;61885;53.560;9.940;2023-07-28T01:46:17;16.30;99.90
4673;DHT22;61885;53.560;9.940;2023-07-28T01:48:47;16.30;99.90
4673;DHT22;61885;53.560;9.940;2023-07-28T01:51:16;16.20;99.90
4673;DHT22;61885;53.560;9.940;2023-07-28T01:53:46;16.30;99.90
4673;DHT22;61885;53.560;9.940;2023-07-28T01:56:16;16.40;99.90
4673;DHT22;61885;53.560;9.940;2023-07-28T01:58:48;16.30;99.90
4673;DHT22;61885;53.560;9.940;2023-07-28T02:01:17;16.40;99.90
4673;DHT22;61885;53.560;9.940;2023-07-28T02:03:47;16.30;99.90
4673;DHT22;61885;53.560;9.940;2023-07-28T02:06:19;16.30;99.90
4673;DHT22;61885;53.560;9.940;2023-07-28T02:08:48;16.30;99.90
4673;DHT22;61885;53.560;9.940;2023-07-28T02:11:18;16.40;99.90
4673;DHT22;61885;53.560;9.940;2023-07-28T02:13:50;16.30;99.90
4673;DHT22;61885;53.560;9.940;2023-07-28T02:16:20;16.40;99.90
4673;DHT22;61885;53.560;9.940;2023-07-28T02:18:51;16.40;99.90
4673;DHT22;61885;53.560;9.940;2023-07-28T02:21:20;16.40;99.90
4673;DHT22;61885;53.560;9.940;2023-07-28T02:23:50;16.40;99.90
4673;DHT22;61885;53.560;9.940;2023-07-28T02:26:20;16.40;99.90
4673;DHT22;61885;53.560;9.940;2023-07-28T02:28:52;16.50;99.90
4673;DHT22;61885;53.560;9.940;2023-07-28T02:31:22;16.40;99.90
4673;DHT22;61885;53.560;9.940;2023-07-28T02:33:51;16.30;99.90
4673;DHT22;61885;53.560;9.940;2023-07-28T02:36:23;16.30;99.90
4673;DHT22;61885;53.560;9.940;2023-07-28T02:38:52;16.30;99.90
4673;DHT22;61885;53.560;9.940;2023-07-28T02:41:23;16.40;99.90
4673;DHT22;61885;53.560;9.940;2023-07-28T02:43:55;16.30;99.90
4673;DHT22;61885;53.560;9.940;2023-07-28T02:46:25;16.40;99.90
4673;DHT22;61885;53.560;9.940;2023-07-28T02:48:54;16.30;99.90
4673;DHT22;61885;53.560;9.940;2023-07-28T02:51:24;16.40;99.90
4673;DHT22;61885;53.560;9.940;2023-07-28T02:53:53;16.30;99.90
4673;DHT22;61885;53.560;9.940;2023-07-28T02:56:23;16.30;99.90
4673;DHT22;61885;53.560;9.940;2023-07-28T02:58:55;16.30;99.90
4673;DHT22;61885;53.560;9.940;2023-07-28T03:01:27;16.30;99.90
4673;DHT22;61885;53.560;9.940;2023-07-28T03:04:00;16.20;99.90
4673;DHT22;61885;53.560;9.940;2023-07-28T03:06:31;16.30;99.90
4673;DHT22;61885;53.560;9.940;2023-07-28T03:09:02;16.20;99.90
4673;DHT22;61885;53.560;9.940;2023-07-28T03:11:33;16.20;99.90
4673;DHT22;61885;53.560;9.940;2023-07-28T03:14:06;16.10;99.90
4673;DHT22;61885;53.560;9.940;2023-07-28T03:16:36;16.10;99.90
4673;DHT22;61885;53.560;9.940;2023-07-28T03:19:07;16.10;99.90
4673;DHT22;61885;53.560;9.940;2023-07-28T03:21:38;16.20;99.90
4673;DHT22;61885;53.560;9.940;2023-07-28T03:24:08;16.20;99.90
4673;DHT22;61885;53.560;9.940;2023-07-28T03:26:38;16.20;99.90
4673;DHT22;61885;53.560;9.940;2023-07-28T03:29:11;16.20;99.90
4673;DHT22;61885;53.560;9.940;2023-07-28T03:31:42;16.20;99.90
4673;DHT22;61885;53.560;9.940;2023-07-28T03:34:20;16.20;99.90
4673;DHT22;61885;53.560;9.940;2023-07-28T03:36:50;16.20;99.90
4673;DHT22;61885;53.560;9.940;2023-07-28T03:39:22;16.20;99.90
4673;DHT22;61885;53.560;9.940;2023-07-28T03:41:52;16.20;99.90
4673;DHT22;61885;53.560;9.940;2023-07-28T03:44:25;16.20;99.90
4673;DHT22;61885;53.560;9.940;2023-07-28T03:46:55;16.20;99.90
4673;DHT22;61885;53.560;9.940;2023-07-28T03:49:25;16.10;99.90
4673;DHT22;61885;53.560;9.940;2023-07-28T03:51:55;16.10;99.90
4673;DHT22;61885;53.560;9.940;2023-07-28T03:54:24;16.20;99.90
4673;DHT22;61885;53.560;9.940;2023-07-28T03:56:55;16.20;99.90
4673;DHT22;61885;53.560;9.940;2023-07-28T03:59:27;16.20;99.90
4673;DHT22;61885;53.560;9.940;2023-07-28T04:01:58;16.20;99.90
4673;DHT22;61885;53.560;9.940;2023-07-28T04:04:28;16.20;99.90
4673;DHT22;61885;53.560;9.940;2023-07-28T04:07:00;16.20;99.90
4673;DHT22;61885;53.560;9.940;2023-07-28T04:09:31;16.00;99.90
4673;DHT22;61885;53.560;9.940;2023-07-28T04:12:01;16.10;99.90
4673;DHT22;61885;53.560;9.940;2023-07-28T04:14:33;16.20;99.90
4673;DHT22;61885;53.560;9.940;2023-07-28T04:17:03;16.20;99.90
4673;DHT22;61885;53.560;9.940;2023-07-28T04:19:34;16.20;99.90
4673;DHT22;61885;53.560;9.940;2023-07-28T04:22:04;16.30;99.90
4673;DHT22;61885;53.560;9.940;2023-07-28T04:24:34;16.20;99.90
4673;DHT22;61885;53.560;9.940;2023-07-28T04:27:04;16.10;99.90
4673;DHT22;61885;53.560;9.940;2023-07-28T04:29:36;16.20;99.90
4673;DHT22;61885;53.560;9.940;2023-07-28T04:32:06;16.30;99.90
4673;DHT22;61885;53.560;9.940;2023-07-28T04:34:36;16.30;99.90
4673;DHT22;61885;53.560;9.940;2023-07-28T04:37:06;16.30;99.90
4673;DHT22;61885;53.560;9.940;2023-07-28T04:39:37;16.30;99.90
4673;DHT22;61885;53.560;9.940;2023-07-28T04:42:07;16.30;99.90
4673;DHT22;61885;53.560;9.940;2023-07-28T04:44:42;16.40;99.80
4673;DHT22;61885;53.560;9.940;2023-07-28T04:47:13;16.20;99.90
4673;DHT22;61885;53.560;9.940;2023-07-28T04:49:42;16.40;99.90
4673;DHT22;61885;53.560;9.940;2023-07-28T04:52:12;16.40;99.70
4673;DHT22;61885;53.560;9.940;2023-07-28T04:54:42;16.40;99.60
4673;DHT22;61885;53.560;9.940;2023-07-28T04:57:15;16.40;99.30
4673;DHT22;61885;53.560;9.940;2023-07-28T04:59:50;16.50;99.50
4673;DHT22;61885;53.560;9.940;2023-07-28T05:02:21;16.50;99.60
4673;DHT22;61885;53.560;9.940;2023-07-28T05:04:53;16.50;99.60
4673;DHT22;61885;53.560;9.940;2023-07-28T05:07:24;16.40;99.30
4673;DHT22;61885;53.560;9.940;2023-07-28T05:09:57;16.40;99.60
4673;DHT22;61885;53.560;9.940;2023-07-28T05:12:29;16.50;99.50
4673;DHT22;61885;53.560;9.940;2023-07-28T05:15:03;16.50;99.60
4673;DHT22;61885;53.560;9.940;2023-07-28T05:17:38;16.50;99.50
4673;DHT22;61885;53.560;9.940;2023-07-28T05:20:11;16.60;99.10
4673;DHT22;61885;53.560;9.940;2023-07-28T05:22:41;16.70;99.00
4673;DHT22;61885;53.560;9.940;2023-07-28T05:25:11;16.70;98.80
4673;DHT22;61885;53.560;9.940;2023-07-28T05:27:40;16.80;98.50
4673;DHT22;61885;53.560;9.940;2023-07-28T05:30:13;16.90;98.40
4673;DHT22;61885;53.560;9.940;2023-07-28T05:32:44;17.00;97.70
4673;DHT22;61885;53.560;9.940;2023-07-28T05:35:17;17.10;97.60
4673;DHT22;61885;53.560;9.940;2023-07-28T05:37:55;17.10;97.00
4673;DHT22;61885;53.560;9.940;2023-07-28T05:40:26;17.10;97.00
4673;DHT22;61885;53.560;9.940;2023-07-28T05:42:58;17.00;96.70
4673;DHT22;61885;53.560;9.940;2023-07-28T05:45:47;17.00;96.90
4673;DHT22;61885;53.560;9.940;2023-07-28T05:48:21;17.20;96.70
4673;DHT22;61885;53.560;9.940;2023-07-28T05:50:52;17.00;96.40
4673;DHT22;61885;53.560;9.940;2023-07-28T05:53:22;16.90;96.70
4673;DHT22;61885;53.560;9.940;2023-07-28T05:55:52;17.00;96.80
4673;DHT22;61885;53.560;9.940;2023-07-28T05:58:24;17.10;97.30
4673;DHT22;61885;53.560;9.940;2023-07-28T06:00:56;17.20;97.10
4673;DHT22;61885;53.560;9.940;2023-07-28T06:03:31;17.20;96.80
4673;DHT22;61885;53.560;9.940;2023-07-28T06:06:02;17.40;95.40
4673;DHT22;61885;53.560;9.940;2023-07-28T06:08:32;17.40;95.50
4673;DHT22;61885;53.560;9.940;2023-07-28T06:11:03;17.30;94.90
4673;DHT22;61885;53.560;9.940;2023-07-28T06:13:35;17.30;95.40
4673;DHT22;61885;53.560;9.940;2023-07-28T06:16:08;17.20;94.90
4673;DHT22;61885;53.560;9.940;2023-07-28T06:18:38;17.30;94.90
4673;DHT22;61885;53.560;9.940;2023-07-28T06:21:07;17.20;94.70
4673;DHT22;61885;53.560;9.940;2023-07-28T06:23:37;17.30;94.90
4673;DHT22;61885;53.560;9.940;2023-07-28T06:26:07;17.40;94.30
4673;DHT22;61885;53.560;9.940;2023-07-28T06:28:36;17.70;93.50
4673;DHT22;61885;53.560;9.940;2023-07-28T06:31:10;17.90;92.80
4673;DHT22;61885;53.560;9.940;2023-07-28T06:33:41;17.70;93.00
4673;DHT22;61885;53.560;9.940;2023-07-28T06:36:11;17.50;93.60
4673;DHT22;61885;53.560;9.940;2023-07-28T06:38:40;17.60;94.00
4673;DHT22;61885;53.560;9.940;2023-07-28T06:41:12;17.70;94.10
4673;DHT22;61885;53.560;9.940;2023-07-28T06:43:42;18.00;93.50
4673;DHT22;61885;53.560;9.940;2023-07-28T06:46:14;18.10;92.90
4673;DHT22;61885;53.560;9.940;2023-07-28T06:48:49;17.80;92.80
4673;DHT22;61885;53.560;9.940;2023-07-28T06:51:24;17.90;93.40
4673;DHT22;61885;53.560;9.940;2023-07-28T06:53:58;18.20;92.60
4673;DHT22;61885;53.560;9.940;2023-07-28T06:56:29;18.20;92.70
4673;DHT22;61885;53.560;9.940;2023-07-28T06:58:59;18.20;92.60
4673;DHT22;61885;53.560;9.940;2023-07-28T07:01:31;18.30;92.10
4673;DHT22;61885;53.560;9.940;2023-07-28T07:04:01;18.10;92.40
4673;DHT22;61885;53.560;9.940;2023-07-28T07:06:31;18.30;91.80
4673;DHT22;61885;53.560;9.940;2023-07-28T07:09:02;18.40;91.50
4673;DHT22;61885;53.560;9.940;2023-07-28T07:11:32;18.40;91.00
4673;DHT22;61885;53.560;9.940;2023-07-28T07:14:02;18.40;90.60
4673;DHT22;61885;53.560;9.940;2023-07-28T07:16:34;18.50;90.80
4673;DHT22;61885;53.560;9.940;2023-07-28T07:19:04;18.60;90.50
4673;DHT22;61885;53.560;9.940;2023-07-28T07:21:34;18.40;90.40
4673;DHT22;61885;53.560;9.940;2023-07-28T07:24:06;18.30;90.60
4673;DHT22;61885;53.560;9.940;2023-07-28T07:26:36;18.30;90.40
4673;DHT22;61885;53.560;9.940;2023-07-28T07:29:11;18.10;91.20
4673;DHT22;61885;53.560;9.940;2023-07-28T07:31:43;18.10;91.40
4673;DHT22;61885;53.560;9.940;2023-07-28T07:34:13;18.10;91.40
4673;DHT22;61885;53.560;9.940;2023-07-28T07:36:50;18.40;90.70
4673;DHT22;61885;53.560;9.940;2023-07-28T07:39:19;18.20;90.10
4673;DHT22;61885;53.560;9.940;2023-07-28T07:41:51;18.20;90.60
4673;DHT22;61885;53.560;9.940;2023-07-28T07:44:24;18.30;91.00
4673;DHT22;61885;53.560;9.940;2023-07-28T07:46:59;18.20;91.60
4673;DHT22;61885;53.560;9.940;2023-07-28T07:49:32;18.30;91.60
4673;DHT22;61885;53.560;9.940;2023-07-28T07:52:02;18.40;91.20
4673;DHT22;61885;53.560;9.940;2023-07-28T07:54:33;18.40;90.10
4673;DHT22;61885;53.560;9.940;2023-07-28T07:57:03;18.30;89.50
4673;DHT22;61885;53.560;9.940;2023-07-28T07:59:34;18.30;90.20
4673;DHT22;61885;53.560;9.940;2023-07-28T08:02:06;18.50;90.20
4673;DHT22;61885;53.560;9.940;2023-07-28T08:04:36;18.70;90.00
4673;DHT22;61885;53.560;9.940;2023-07-28T08:07:08;18.80;90.10
4673;DHT22;61885;53.560;9.940;2023-07-28T08:09:37;18.70;89.20
4673;DHT22;61885;53.560;9.940;2023-07-28T08:12:08;18.80;89.70
4673;DHT22;61885;53.560;9.940;2023-07-28T08:14:42;19.00;89.00
4673;DHT22;61885;53.560;9.940;2023-07-28T08:17:15;19.30;88.50
4673;DHT22;61885;53.560;9.940;2023-07-28T08:19:46;19.40;88.20
4673;DHT22;61885;53.560;9.940;2023-07-28T08:22:17;19.30;88.20
4673;DHT22;61885;53.560;9.940;2023-07-28T08:24:47;19.50;87.20
4673;DHT22;61885;53.560;9.940;2023-07-28T08:27:17;19.60;86.30
4673;DHT22;61885;53.560;9.940;2023-07-28T08:29:48;19.60;86.50
4673;DHT22;61885;53.560;9.940;2023-07-28T08:32:20;19.60;85.70
4673;DHT22;61885;53.560;9.940;2023-07-28T08:34:50;19.80;84.80
4673;DHT22;61885;53.560;9.940;2023-07-28T08:37:20;19.80;83.70
4673;DHT22;61885;53.560;9.940;2023-07-28T08:39:59;19.40;84.40
4673;DHT22;61885;53.560;9.940;2023-07-28T08:42:34;19.50;85.30
4673;DHT22;61885;53.560;9.940;2023-07-28T08:45:06;19.80;85.20
4673;DHT22;61885;53.560;9.940;2023-07-28T08:47:42;19.80;83.90
4673;DHT22;61885;53.560;9.940;2023-07-28T08:50:15;19.70;84.60
4673;DHT22;61885;53.560;9.940;2023-07-28T08:52:45;19.70;85.20
4673;DHT22;61885;53.560;9.940;2023-07-28T08:55:17;19.70;83.80
4673;DHT22;61885;53.560;9.940;2023-07-28T08:57:47;19.50;84.90
4673;DHT22;61885;53.560;9.940;2023-07-28T09:00:20;19.70;84.40
4673;DHT22;61885;53.560;9.940;2023-07-28T09:02:52;19.90;84.30
4673;DHT22;61885;53.560;9.940;2023-07-28T09:05:25;20.20;82.30
4673;DHT22;61885;53.560;9.940;2023-07-28T09:07:58;20.10;82.90
4673;DHT22;61885;53.560;9.940;2023-07-28T09:10:41;20.20;83.00
4673;DHT22;61885;53.560;9.940;2023-07-28T09:13:13;20.30;82.50
4673;DHT22;61885;53.560;9.940;2023-07-28T09:15:43;20.20;83.00
4673;DHT22;61885;53.560;9.940;2023-07-28T09:18:16;20.60;82.20
4673;DHT22;61885;53.560;9.940;2023-07-28T09:20:47;20.60;81.50
4673;DHT22;61885;53.560;9.940;2023-07-28T09:23:16;20.60;81.60
4673;DHT22;61885;53.560;9.940;2023-07-28T09:25:46;20.80;81.30
4673;DHT22;61885;53.560;9.940;2023-07-28T09:28:16;20.60;81.40
4673;DHT22;61885;53.560;9.940;2023-07-28T09:30:47;20.30;82.40
4673;DHT22;61885;53.560;9.940;2023-07-28T09:33:32;20.00;82.70
4673;DHT22;61885;53.560;9.940;2023-07-28T09:36:08;19.80;84.00
4673;DHT22;61885;53.560;9.940;2023-07-28T09:38:40;19.70;84.70
4673;DHT22;61885;53.560;9.940;2023-07-28T09:41:11;19.50;85.50
4673;DHT22;61885;53.560;9.940;2023-07-28T09:43:41;19.50;85.70
4673;DHT22;61885;53.560;9.940;2023-07-28T09:46:13;19.40;85.80
4673;DHT22;61885;53.560;9.940;2023-07-28T09:48:52;19.60;85.30
4673;DHT22;61885;53.560;9.940;2023-07-28T09:51:30;19.50;85.50
4673;DHT22;61885;53.560;9.940;2023-07-28T09:54:04;19.50;85.60
4673;DHT22;61885;53.560;9.940;2023-07-28T09:56:35;19.50;86.10
4673;DHT22;61885;53.560;9.940;2023-07-28T09:59:11;19.40;86.20
4673;DHT22;61885;53.560;9.940;2023-07-28T10:01:44;19.30;87.00
4673;DHT22;61885;53.560;9.940;2023-07-28T10:04:17;19.40;86.50
4673;DHT22;61885;53.560;9.940;2023-07-28T10:06:51;19.40;86.80
4673;DHT22;61885;53.560;9.940;2023-07-28T10:09:26;19.50;86.60
4673;DHT22;61885;53.560;9.940;2023-07-28T10:11:57;19.60;86.00
4673;DHT22;61885;53.560;9.940;2023-07-28T10:14:27;19.70;85.70
4673;DHT22;61885;53.560;9.940;2023-07-28T10:16:58;19.80;85.40
4673;DHT22;61885;53.560;9.940;2023-07-28T10:19:36;20.20;83.80
4673;DHT22;61885;53.560;9.940;2023-07-28T10:22:08;20.10;83.20
4673;DHT22;61885;53.560;9.940;2023-07-28T10:24:53;20.30;83.00
4673;DHT22;61885;53.560;9.940;2023-07-28T10:27:32;20.40;82.40
4673;DHT22;61885;53.560;9.940;2023-07-28T10:30:10;20.30;82.80
4673;DHT22;61885;53.560;9.940;2023-07-28T10:32:47;20.40;82.40
4673;DHT22;61885;53.560;9.940;2023-07-28T10:35:26;20.50;82.10
4673;DHT22;61885;53.560;9.940;2023-07-28T10:38:29;20.80;81.30
4673;DHT22;61885;53.560;9.940;2023-07-28T10:41:14;21.00;79.90
4673;DHT22;61885;53.560;9.940;2023-07-28T10:43:47;21.30;79.80
4673;DHT22;61885;53.560;9.940;2023-07-28T10:46:21;21.50;79.60
4673;DHT22;61885;53.560;9.940;2023-07-28T10:48:51;21.70;78.60
4673;DHT22;61885;53.560;9.940;2023-07-28T10:51:26;21.70;77.20
4673;DHT22;61885;53.560;9.940;2023-07-28T10:54:00;22.00;77.30
4673;DHT22;61885;53.560;9.940;2023-07-28T10:56:30;21.90;77.00
4673;DHT22;61885;53.560;9.940;2023-07-28T10:59:03;22.20;77.10
4673;DHT22;61885;53.560;9.940;2023-07-28T11:01:43;22.40;76.00
4673;DHT22;61885;53.560;9.940;2023-07-28T11:04:15;22.20;75.70
4673;DHT22;61885;53.560;9.940;2023-07-28T11:06:50;22.00;76.70
4673;DHT22;61885;53.560;9.940;2023-07-28T11:09:22;21.70;77.40
4673;DHT22;61885;53.560;9.940;2023-07-28T11:11:52;21.30;78.90
4673;DHT22;61885;53.560;9.940;2023-07-28T11:14:26;21.30;78.80
4673;DHT22;61885;53.560;9.940;2023-07-28T11:16:56;21.20;79.50
4673;DHT22;61885;53.560;9.940;2023-07-28T11:19:27;21.10;80.10
4673;DHT22;61885;53.560;9.940;2023-07-28T11:21:59;21.60;79.70
4673;DHT22;61885;53.560;9.940;2023-07-28T11:24:29;22.20;77.50
4673;DHT22;61885;53.560;9.940;2023-07-28T11:27:01;22.80;76.00
4673;DHT22;61885;53.560;9.940;2023-07-28T11:29:30;22.80;74.90
4673;DHT22;61885;53.560;9.940;2023-07-28T11:32:01;22.10;76.80
4673;DHT22;61885;53.560;9.940;2023-07-28T11:34:36;22.40;75.40
4673;DHT22;61885;53.560;9.940;2023-07-28T11:37:12;22.70;74.00
4673;DHT22;61885;53.560;9.940;2023-07-28T11:39:44;22.70;75.10
4673;DHT22;61885;53.560;9.940;2023-07-28T11:42:29;23.10;73.60
4673;DHT22;61885;53.560;9.940;2023-07-28T11:44:59;23.00;74.00
4673;DHT22;61885;53.560;9.940;2023-07-28T11:47:31;22.90;74.20
4673;DHT22;61885;53.560;9.940;2023-07-28T11:50:01;22.90;74.50
4673;DHT22;61885;53.560;9.940;2023-07-28T11:52:35;23.10;73.90
4673;DHT22;61885;53.560;9.940;2023-07-28T11:55:08;22.60;74.90
4673;DHT22;61885;53.560;9.940;2023-07-28T11:57:42;22.40;75.50
4673;DHT22;61885;53.560;9.940;2023-07-28T12:00:16;22.40;76.50
4673;DHT22;61885;53.560;9.940;2023-07-28T12:03:02;22.60;75.70
4673;DHT22;61885;53.560;9.940;2023-07-28T12:05:37;22.90;74.50
4673;DHT22;61885;53.560;9.940;2023-07-28T12:08:09;23.10;74.40
4673;DHT22;61885;53.560;9.940;2023-07-28T12:10:54;23.10;73.70
4673;DHT22;61885;53.560;9.940;2023-07-28T12:13:24;23.20;73.70
4673;DHT22;61885;53.560;9.940;2023-07-28T12:15:55;22.90;74.20
4673;DHT22;61885;53.560;9.940;2023-07-28T12:18:29;22.90;74.60
4673;DHT22;61885;53.560;9.940;2023-07-28T12:21:02;23.00;74.70
4673;DHT22;61885;53.560;9.940;2023-07-28T12:23:39;23.20;73.90
4673;DHT22;61885;53.560;9.940;2023-07-28T12:26:13;22.90;74.40
4673;DHT22;61885;53.560;9.940;2023-07-28T12:28:42;22.60;74.90
4673;DHT22;61885;53.560;9.940;2023-07-28T12:31:12;22.40;75.50
4673;DHT22;61885;53.560;9.940;2023-07-28T12:33:42;22.60;76.40
4673;DHT22;61885;53.560;9.940;2023-07-28T12:36:13;23.10;74.10
4673;DHT22;61885;53.560;9.940;2023-07-28T12:38:48;23.50;72.90
4673;DHT22;61885;53.560;9.940;2023-07-28T12:41:47;23.70;73.40
4673;DHT22;61885;53.560;9.940;2023-07-28T12:44:20;24.00;71.40
4673;DHT22;61885;53.560;9.940;2023-07-28T12:46:52;24.10;70.90
4673;DHT22;61885;53.560;9.940;2023-07-28T12:49:22;23.50;72.50
4673;DHT22;61885;53.560;9.940;2023-07-28T12:51:53;23.50;72.90
4673;DHT22;61885;53.560;9.940;2023-07-28T12:54:33;23.50;72.70
4673;DHT22;61885;53.560;9.940;2023-07-28T12:57:02;23.30;73.30
4673;DHT22;61885;53.560;9.940;2023-07-28T12:59:36;23.10;74.00
4673;DHT22;61885;53.560;9.940;2023-07-28T13:02:06;22.50;75.40
4673;DHT22;61885;53.560;9.940;2023-07-28T13:04:40;22.40;76.20
4673;DHT22;61885;53.560;9.940;2023-07-28T13:07:11;22.40;76.40
4673;DHT22;61885;53.560;9.940;2023-07-28T13:09:43;22.50;75.80
4673;DHT22;61885;53.560;9.940;2023-07-28T13:12:20;22.50;76.10
4673;DHT22;61885;53.560;9.940;2023-07-28T13:14:55;22.40;76.30
4673;DHT22;61885;53.560;9.940;2023-07-28T13:17:27;22.60;76.10
4673;DHT22;61885;53.560;9.940;2023-07-28T13:19:58;22.70;75.90
4673;DHT22;61885;53.560;9.940;2023-07-28T13:22:27;22.90;75.70
4673;DHT22;61885;53.560;9.940;2023-07-28T13:25:01;22.90;75.80
4673;DHT22;61885;53.560;9.940;2023-07-28T13:27:31;23.10;75.30
4673;DHT22;61885;53.560;9.940;2023-07-28T13:30:03;23.30;74.80
4673;DHT22;61885;53.560;9.940;2023-07-28T13:32:33;23.70;73.50
4673;DHT22;61885;53.560;9.940;2023-07-28T13:35:03;24.10;73.30
4673;DHT22;61885;53.560;9.940;2023-07-28T13:37:37;24.00;71.50
4673;DHT22;61885;53.560;9.940;2023-07-28T13:40:10;24.00;71.80
4673;DHT22;61885;53.560;9.940;2023-07-28T13:42:42;23.60;72.00
4673;DHT22;61885;53.560;9.940;2023-07-28T13:45:14;23.70;73.20
4673;DHT22;61885;53.560;9.940;2023-07-28T13:47:47;23.80;70.90
4673;DHT22;61885;53.560;9.940;2023-07-28T13:50:21;23.90;71.60
4673;DHT22;61885;53.560;9.940;2023-07-28T13:52:51;23.70;72.20
4673;DHT22;61885;53.560;9.940;2023-07-28T13:55:24;23.90;71.50
4673;DHT22;61885;53.560;9.940;2023-07-28T13:57:57;24.10;70.70
4673;DHT22;61885;53.560;9.940;2023-07-28T14:00:27;24.00;71.10
4673;DHT22;61885;53.560;9.940;2023-07-28T14:02:57;23.90;71.10
4673;DHT22;61885;53.560;9.940;2023-07-28T14:05:28;23.80;71.00
4673;DHT22;61885;53.560;9.940;2023-07-28T14:07:58;23.90;71.60
4673;DHT22;61885;53.560;9.940;2023-07-28T14:10:30;24.00;70.90
4673;DHT22;61885;53.560;9.940;2023-07-28T14:13:01;24.00;70.60
4673;DHT22;61885;53.560;9.940;2023-07-28T14:15:32;24.10;71.00
4673;DHT22;61885;53.560;9.940;2023-07-28T14:18:02;23.90;71.10
4673;DHT22;61885;53.560;9.940;2023-07-28T14:20:33;23.70;71.30
4673;DHT22;61885;53.560;9.940;2023-07-28T14:23:21;23.80;72.60
4673;DHT22;61885;53.560;9.940;2023-07-28T14:25:56;23.60;72.80
4673;DHT22;61885;53.560;9.940;2023-07-28T14:28:28;23.70;72.40
4673;DHT22;61885;53.560;9.940;2023-07-28T14:30:58;23.90;71.60
4673;DHT22;61885;53.560;9.940;2023-07-28T14:33:29;24.10;71.50
4673;DHT22;61885;53.560;9.940;2023-07-28T14:36:01;24.50;70.30
4673;DHT22;61885;53.560;9.940;2023-07-28T14:38:32;25.00;69.60
4673;DHT22;61885;53.560;9.940;2023-07-28T14:41:08;25.60;67.50
4673;DHT22;61885;53.560;9.940;2023-07-28T14:43:38;25.90;65.00
4673;DHT22;61885;53.560;9.940;2023-07-28T14:46:11;25.60;64.80
4673;DHT22;61885;53.560;9.940;2023-07-28T14:48:42;25.60;65.30
4673;DHT22;61885;53.560;9.940;2023-07-28T14:51:11;26.30;63.40
4673;DHT22;61885;53.560;9.940;2023-07-28T14:53:41;26.70;61.80
4673;DHT22;61885;53.560;9.940;2023-07-28T14:56:18;26.10;63.10
4673;DHT22;61885;53.560;9.940;2023-07-28T14:58:51;25.40;65.30
4673;DHT22;61885;53.560;9.940;2023-07-28T15:01:21;24.80;67.00
4673;DHT22;61885;53.560;9.940;2023-07-28T15:03:53;24.50;68.60
4673;DHT22;61885;53.560;9.940;2023-07-28T15:06:30;24.40;69.40
4673;DHT22;61885;53.560;9.940;2023-07-28T15:09:00;23.90;70.90
4673;DHT22;61885;53.560;9.940;2023-07-28T15:11:32;23.30;72.50
4673;DHT22;61885;53.560;9.940;2023-07-28T15:14:10;23.20;73.60
4673;DHT22;61885;53.560;9.940;2023-07-28T15:16:45;23.80;71.50
4673;DHT22;61885;53.560;9.940;2023-07-28T15:19:18;24.90;70.00
4673;DHT22;61885;53.560;9.940;2023-07-28T15:21:49;26.60;64.00
4673;DHT22;61885;53.560;9.940;2023-07-28T15:24:23;27.10;61.80
4673;DHT22;61885;53.560;9.940;2023-07-28T15:26:56;27.00;61.80
4673;DHT22;61885;53.560;9.940;2023-07-28T15:29:28;27.30;59.90
4673;DHT22;61885;53.560;9.940;2023-07-28T15:32:01;27.70;57.80
4673;DHT22;61885;53.560;9.940;2023-07-28T15:34:32;28.00;58.00
4673;DHT22;61885;53.560;9.940;2023-07-28T15:37:02;28.30;56.70
4673;DHT22;61885;53.560;9.940;2023-07-28T15:39:32;27.80;57.90
4673;DHT22;61885;53.560;9.940;2023-07-28T15:42:06;26.90;60.40
4673;DHT22;61885;53.560;9.940;2023-07-28T15:44:39;27.40;59.90
4673;DHT22;61885;53.560;9.940;2023-07-28T15:47:17;27.00;60.60
4673;DHT22;61885;53.560;9.940;2023-07-28T15:49:49;26.20;62.40
4673;DHT22;61885;53.560;9.940;2023-07-28T15:52:20;25.40;64.70
4673;DHT22;61885;53.560;9.940;2023-07-28T15:54:50;24.90;65.10
4673;DHT22;61885;53.560;9.940;2023-07-28T15:57:22;24.90;66.40
4673;DHT22;61885;53.560;9.940;2023-07-28T15:59:56;26.00;63.00
4673;DHT22;61885;53.560;9.940;2023-07-28T16:02:29;26.00;62.80
4673;DHT22;61885;53.560;9.940;2023-07-28T16:04:59;25.20;64.00
4673;DHT22;61885;53.560;9.940;2023-07-28T16:07:31;24.60;66.40
4673;DHT22;61885;53.560;9.940;2023-07-28T16:10:11;24.50;66.80
4673;DHT22;61885;53.560;9.940;2023-07-28T16:12:51;24.30;67.80
4673;DHT22;61885;53.560;9.940;2023-07-28T16:15:21;24.20;68.00
4673;DHT22;61885;53.560;9.940;2023-07-28T16:17:55;25.00;66.30